createdAt,value
2022-12-26T00:02:03.765Z,100184.56
2022-12-26T00:04:51.799Z,100254.03
2022-12-26T00:07:23.650Z,100045.44
2022-12-26T00:09:54.382Z,100252.19
2022-12-26T00:12:23.446Z,100191.34
2022-12-26T00:14:53.187Z,100106.22
2022-12-26T00:17:23.570Z,100144.44
2022-12-26T00:19:52.143Z,100192.13
2022-12-26T00:22:20.885Z,100239.94
2022-12-26T00:24:49.606Z,100206.03
2022-12-26T00:27:18.152Z,100149.56
2022-12-26T00:29:51.899Z,100155.59
2022-12-26T00:32:21.999Z,100243.34
2022-12-26T00:34:52.268Z,100245.94
2022-12-26T00:37:23.780Z,100242.41
2022-12-26T00:39:53.585Z,100141.47
2022-12-26T00:42:22.769Z,100223.94
2022-12-26T00:44:51.772Z,100223.03
2022-12-26T00:47:21.993Z,100158.00
2022-12-26T00:50:13.324Z,100160.59
2022-12-26T00:52:39.631Z,100228.38
2022-12-26T00:55:09.231Z,100236.25
2022-12-26T00:57:39.617Z,100236.06
2022-12-26T01:00:10.034Z,100223.66
2022-12-26T01:02:41.378Z,100077.53
2022-12-26T01:05:13.071Z,100171.50
2022-12-26T01:08:20.103Z,100161.19
2022-12-26T01:10:34.159Z,100209.91
2022-12-26T01:13:04.603Z,100204.63
2022-12-26T01:15:33.572Z,100203.78
2022-12-26T01:18:04.288Z,100201.09
2022-12-26T01:20:36.029Z,100088.06
2022-12-26T01:23:06.625Z,100221.31
2022-12-26T01:25:35.620Z,100206.38
2022-12-26T01:28:04.907Z,100213.41
2022-12-26T01:30:38.366Z,100197.66
2022-12-26T01:33:11.856Z,100206.38
2022-12-26T01:35:40.610Z,100201.13
2022-12-26T01:38:09.431Z,100195.97
2022-12-26T01:40:43.481Z,100185.47
2022-12-26T01:43:14.040Z,100046.47
2022-12-26T01:45:51.831Z,100168.25
2022-12-26T01:48:33.472Z,100184.81
2022-12-26T01:51:07.088Z,100097.03
2022-12-26T01:53:40.761Z,100190.94
2022-12-26T01:56:16.203Z,100085.72
2022-12-26T01:58:51.313Z,100150.84
2022-12-26T02:01:23.540Z,99998.16
2022-12-26T02:04:13.718Z,100169.25
2022-12-26T02:06:43.010Z,100075.63
2022-12-26T02:09:12.103Z,100108.72
2022-12-26T02:11:46.522Z,100132.13
2022-12-26T02:14:15.560Z,100177.31
2022-12-26T02:16:44.409Z,100173.75
2022-12-26T02:19:35.354Z,99957.53
2022-12-26T02:22:47.450Z,100084.13
2022-12-26T02:26:09.545Z,100182.44
2022-12-26T02:29:16.705Z,100176.19
2022-12-26T02:31:57.431Z,100074.47
2022-12-26T02:34:42.579Z,99903.22
2022-12-26T02:37:30.123Z,100165.53
2022-12-26T02:40:21.177Z,99946.56
2022-12-26T02:43:07.520Z,99893.50
2022-12-26T02:46:02.873Z,100109.78
2022-12-26T02:48:47.807Z,100153.06
2022-12-26T02:51:54.248Z,100155.41
2022-12-26T02:54:50.849Z,100070.94
2022-12-26T02:57:42.990Z,100104.59
2022-12-26T03:00:41.186Z,100169.91
2022-12-26T03:03:33.994Z,100063.75
2022-12-26T03:06:32.297Z,100156.31
2022-12-26T03:09:24.632Z,100056.47
2022-12-26T03:12:18.775Z,100156.16
2022-12-26T03:14:57.106Z,100170.22
2022-12-26T03:17:33.898Z,100159.75
2022-12-26T03:20:11.219Z,100028.94
2022-12-26T03:22:50.108Z,100128.16
2022-12-26T03:25:46.046Z,100167.50
2022-12-26T03:28:19.081Z,100170.09
2022-12-26T03:30:49.488Z,100144.78
2022-12-26T03:33:47.533Z,100156.78
2022-12-26T03:36:31.825Z,100057.84
2022-12-26T03:39:15.022Z,100085.72
2022-12-26T03:42:11.968Z,100137.81
2022-12-26T03:45:14.465Z,100175.28
2022-12-26T03:48:10.432Z,100120.44
2022-12-26T03:51:04.296Z,100144.50
2022-12-26T03:54:00.582Z,100115.34
2022-12-26T03:56:58.844Z,100155.09
2022-12-26T03:59:52.463Z,100162.06
2022-12-26T04:02:40.719Z,100180.34
2022-12-26T04:05:33.422Z,100096.69
2022-12-26T04:08:30.521Z,100166.91
2022-12-26T04:11:20.989Z,100166.75
2022-12-26T04:14:17.762Z,100173.13
2022-12-26T04:17:14.828Z,100162.75
2022-12-26T04:20:03.043Z,100163.63
2022-12-26T04:23:03.083Z,100006.84
2022-12-26T04:25:59.119Z,100189.28
2022-12-26T04:28:45.291Z,100156.09
2022-12-26T04:31:41.809Z,100140.16
2022-12-26T04:34:40.235Z,100199.41
2022-12-26T04:37:40.001Z,100200.06
2022-12-26T04:40:34.459Z,100169.41
2022-12-26T04:43:50.340Z,100200.69
2022-12-26T04:46:12.084Z,100195.19
2022-12-26T04:49:04.809Z,100151.63
2022-12-26T04:51:36.296Z,100168.13
2022-12-26T04:54:06.818Z,100190.53
2022-12-26T04:56:35.868Z,100125.22
2022-12-26T04:59:04.867Z,100193.00
2022-12-26T05:01:50.818Z,100197.22
2022-12-26T05:04:38.790Z,100200.53
2022-12-26T05:07:34.267Z,100193.53
2022-12-26T05:10:04.522Z,100200.06
2022-12-26T05:12:33.133Z,100129.69
2022-12-26T05:15:02.259Z,100201.41
2022-12-26T05:17:48.190Z,100136.16
2022-12-26T05:20:35.574Z,100202.09
2022-12-26T05:23:36.523Z,100204.66
2022-12-26T05:26:38.631Z,100201.66
2022-12-26T05:29:07.806Z,100203.28
2022-12-26T05:31:37.402Z,100197.09
2022-12-26T05:34:06.032Z,100075.63
2022-12-26T05:36:42.039Z,99980.34
2022-12-26T05:39:11.084Z,100165.69
2022-12-26T05:41:40.572Z,100111.88
2022-12-26T05:44:10.523Z,100226.56
2022-12-26T05:46:41.461Z,100215.25
2022-12-26T05:49:10.786Z,100219.44
2022-12-26T05:51:42.247Z,100002.69
2022-12-26T05:54:13.680Z,100211.38
2022-12-26T05:56:48.954Z,100210.59
2022-12-26T05:59:17.879Z,100154.00
2022-12-26T06:01:50.747Z,100199.00
2022-12-26T06:04:19.554Z,100173.03
2022-12-26T06:06:50.026Z,100191.31
2022-12-26T06:09:18.687Z,100101.50
2022-12-26T06:11:49.153Z,99910.03
2022-12-26T06:14:18.204Z,100160.78
2022-12-26T06:16:46.809Z,100030.09
2022-12-26T06:19:15.417Z,100059.59
2022-12-26T06:21:45.350Z,100073.75
2022-12-26T06:24:16.587Z,100212.22
2022-12-26T06:26:52.640Z,100219.19
2022-12-26T06:29:24.191Z,100222.59
2022-12-26T06:31:52.911Z,100210.16
2022-12-26T06:34:22.768Z,100217.91
2022-12-26T06:36:55.543Z,100218.78
2022-12-26T06:39:25.824Z,100162.50
2022-12-26T06:41:55.455Z,100214.19
2022-12-26T06:44:26.962Z,100178.59
2022-12-26T06:46:55.566Z,100043.34
2022-12-26T06:49:32.155Z,100219.53
2022-12-26T06:52:01.498Z,100062.50
2022-12-26T06:54:31.488Z,100116.97
2022-12-26T06:57:00.740Z,100218.66
2022-12-26T06:59:30.861Z,100114.81
2022-12-26T07:02:03.756Z,100246.88
2022-12-26T07:04:36.257Z,100249.44
2022-12-26T07:07:05.240Z,100249.31
2022-12-26T07:09:35.113Z,100051.78
2022-12-26T07:12:03.795Z,100273.03
2022-12-26T07:14:34.227Z,100244.47
2022-12-26T07:17:04.592Z,100270.50
2022-12-26T07:19:33.237Z,100162.19
2022-12-26T07:22:02.043Z,100117.53
2022-12-26T07:24:31.681Z,100271.63
2022-12-26T07:27:01.939Z,100246.56
2022-12-26T07:29:32.758Z,100218.09
2022-12-26T07:32:01.822Z,100246.75
2022-12-26T07:34:32.656Z,100273.47
2022-12-26T07:37:07.606Z,100280.88
2022-12-26T07:39:40.685Z,100246.53
2022-12-26T07:42:12.945Z,100203.56
2022-12-26T07:47:37.721Z,100148.38
2022-12-26T07:50:07.118Z,100272.63
2022-12-26T07:52:38.279Z,100275.22
2022-12-26T07:55:08.004Z,100222.44
2022-12-26T07:57:48.638Z,100135.47
2022-12-26T08:00:20.054Z,100284.56
2022-12-26T08:02:50.912Z,100283.53
2022-12-26T08:05:20.935Z,100289.75
2022-12-26T08:07:50.223Z,100178.81
2022-12-26T08:10:25.738Z,100198.59
2022-12-26T08:12:55.668Z,100136.00
2022-12-26T08:15:27.182Z,100227.16
2022-12-26T08:17:55.909Z,100306.88
2022-12-26T08:20:24.774Z,100298.59
2022-12-26T08:22:53.265Z,100265.91
2022-12-26T08:25:22.413Z,100287.00
2022-12-26T08:28:01.526Z,100197.97
2022-12-26T08:30:32.165Z,100282.19
2022-12-26T08:33:00.707Z,100176.16
2022-12-26T08:35:30.237Z,100283.41
2022-12-26T08:38:00.343Z,100275.91
2022-12-26T08:40:44.029Z,100285.31
2022-12-26T08:43:34.831Z,100095.19
2022-12-26T08:46:07.046Z,100282.25
2022-12-26T08:48:41.407Z,100049.75
2022-12-26T08:51:13.868Z,100285.50
2022-12-26T08:53:43.828Z,100288.16
2022-12-26T08:56:18.811Z,100179.06
2022-12-26T08:58:49.453Z,100307.28
2022-12-26T09:01:27.260Z,100288.81
2022-12-26T09:03:58.931Z,100302.75
2022-12-26T09:06:35.657Z,100307.88
2022-12-26T09:09:09.698Z,100238.94
2022-12-26T09:11:39.095Z,100231.75
2022-12-26T09:14:09.422Z,100300.28
2022-12-26T09:16:49.724Z,100245.84
2022-12-26T09:19:20.828Z,100261.38
2022-12-26T09:22:13.191Z,100267.44
2022-12-26T09:24:41.915Z,100180.28
2022-12-26T09:27:13.185Z,100228.94
2022-12-26T09:29:46.459Z,100313.47
2022-12-26T09:32:17.081Z,100241.78
2022-12-26T09:34:53.277Z,100035.34
2022-12-26T09:37:23.809Z,100099.72
2022-12-26T09:39:52.464Z,100302.84
2022-12-26T09:42:39.207Z,100147.31
2022-12-26T09:45:17.256Z,100317.69
2022-12-26T09:48:11.623Z,100199.13
2022-12-26T09:50:47.906Z,100214.13
2022-12-26T09:53:31.578Z,100306.81
2022-12-26T09:56:06.584Z,100229.75
2022-12-26T09:58:47.476Z,100261.91
2022-12-26T10:01:21.207Z,100187.78
2022-12-26T10:03:54.980Z,100165.31
2022-12-26T10:06:26.410Z,100318.97
2022-12-26T10:09:34.048Z,100300.06
2022-12-26T10:12:36.024Z,100229.38
2022-12-26T10:15:26.061Z,100329.16
2022-12-26T10:18:10.791Z,100291.78
2022-12-26T10:21:05.112Z,100335.34
2022-12-26T10:23:40.094Z,100289.38
2022-12-26T10:26:17.418Z,100244.06
2022-12-26T10:28:53.124Z,100332.44
2022-12-26T10:31:32.552Z,100154.50
2022-12-26T10:34:13.935Z,100335.63
2022-12-26T10:36:48.574Z,100180.47
2022-12-26T10:39:26.447Z,100166.34
2022-12-26T10:42:00.845Z,100327.91
2022-12-26T10:44:29.956Z,100119.47
2022-12-26T10:47:21.069Z,100305.91
2022-12-26T10:49:53.822Z,100212.81
2022-12-26T10:52:30.935Z,100246.50
2022-12-26T10:55:28.791Z,100320.81
2022-12-26T10:57:54.523Z,100335.16
2022-12-26T11:00:29.577Z,100331.22
2022-12-26T11:03:07.861Z,100306.66
2022-12-26T11:06:07.635Z,100223.31
2022-12-26T11:08:43.890Z,100308.41
2022-12-26T11:11:25.825Z,100311.28
2022-12-26T11:14:02.187Z,100328.72
2022-12-26T11:16:36.062Z,100242.44
2022-12-26T11:19:05.557Z,100309.69
2022-12-26T11:21:37.552Z,100323.56
2022-12-26T11:24:21.034Z,100309.78
2022-12-26T11:26:50.178Z,100156.56
2022-12-26T11:29:23.825Z,100319.03
2022-12-26T11:32:31.189Z,100140.81
2022-12-26T11:35:00.084Z,100349.03
2022-12-26T11:37:42.071Z,100333.13
2022-12-26T11:40:19.413Z,100337.56
2022-12-26T11:42:55.983Z,100315.13
2022-12-26T11:45:37.133Z,100246.69
2022-12-26T11:48:28.193Z,100226.09
2022-12-26T11:50:56.852Z,100337.47
2022-12-26T11:53:26.843Z,100331.56
2022-12-26T11:56:01.908Z,100351.25
2022-12-26T11:58:36.213Z,100228.03
2022-12-26T12:01:17.678Z,100309.38
2022-12-26T12:03:50.420Z,100232.97
2022-12-26T12:07:02.200Z,100331.44
2022-12-26T12:09:46.412Z,100327.34
2022-12-26T12:12:24.679Z,100325.75
2022-12-26T12:15:05.541Z,100318.88
2022-12-26T12:17:46.266Z,100169.56
2022-12-26T12:20:32.133Z,100337.63
2022-12-26T12:23:42.341Z,100318.28
2022-12-26T12:26:21.729Z,100210.75
2022-12-26T12:29:17.439Z,100266.34
2022-12-26T12:32:07.196Z,100319.53
2022-12-26T12:35:17.037Z,100277.84
2022-12-26T12:38:17.025Z,100239.69
2022-12-26T12:41:02.534Z,100309.03
2022-12-26T12:43:43.807Z,100195.19
2022-12-26T12:46:25.597Z,100277.94
2022-12-26T12:49:21.085Z,100335.50
2022-12-26T12:52:01.553Z,100324.84
2022-12-26T12:55:30.225Z,100223.00
2022-12-26T12:58:06.902Z,100329.09
2022-12-26T13:00:46.264Z,100212.75
2022-12-26T13:03:27.262Z,100105.00
2022-12-26T13:06:09.563Z,100282.31
2022-12-26T13:08:44.125Z,100323.03
2022-12-26T13:11:24.696Z,100301.28
2022-12-26T13:14:00.797Z,100129.97
2022-12-26T13:16:43.359Z,100254.22
2022-12-26T13:19:21.637Z,100308.13
2022-12-26T13:21:53.827Z,100222.84
2022-12-26T13:24:32.522Z,100315.19
2022-12-26T13:27:12.614Z,100068.34
2022-12-26T13:29:47.039Z,100244.66
2022-12-26T13:32:23.053Z,100335.28
2022-12-26T13:34:54.316Z,100345.84
2022-12-26T13:37:58.469Z,100347.59
2022-12-26T13:40:32.349Z,100135.41
2022-12-26T13:43:28.486Z,100068.47
2022-12-26T13:45:58.767Z,100180.59
2022-12-26T13:48:59.796Z,100331.00
2022-12-26T13:51:59.156Z,100342.53
2022-12-26T13:54:31.038Z,100331.19
2022-12-26T13:57:40.367Z,100333.16
2022-12-26T14:00:19.234Z,100265.44
2022-12-26T14:03:28.555Z,100341.16
2022-12-26T14:06:41.731Z,100336.84
2022-12-26T14:10:03.730Z,100291.63
2022-12-26T14:12:59.760Z,100328.19
2022-12-26T14:15:49.877Z,100337.06
2022-12-26T14:18:36.413Z,100337.97
2022-12-26T14:21:39.899Z,100337.13
2022-12-26T14:24:34.438Z,100312.78
2022-12-26T14:27:34.097Z,100205.97
2022-12-26T14:30:25.571Z,100337.41
2022-12-26T14:33:25.107Z,100336.66
2022-12-26T14:36:15.647Z,100332.50
2022-12-26T14:38:56.554Z,100145.78
2022-12-26T14:41:43.992Z,100274.66
2022-12-26T14:44:39.538Z,100320.84
2022-12-26T14:47:12.544Z,100336.69
2022-12-26T14:49:44.406Z,100166.44
2022-12-26T14:52:43.307Z,100308.28
2022-12-26T14:55:52.065Z,100314.50
2022-12-26T14:58:42.875Z,100316.25
2022-12-26T15:01:51.058Z,100327.63
2022-12-26T15:05:06.447Z,100360.97
2022-12-26T15:08:19.775Z,100315.94
2022-12-26T15:11:41.186Z,100312.59
2022-12-26T15:15:03.523Z,100356.13
2022-12-26T15:17:49.247Z,100348.53
2022-12-26T15:20:53.604Z,100378.97
2022-12-26T15:24:21.898Z,100368.56
2022-12-26T15:27:54.920Z,100386.06
2022-12-26T15:30:45.314Z,100275.69
2022-12-26T15:33:26.605Z,100254.91
2022-12-26T15:36:07.052Z,100389.97
2022-12-26T15:38:48.996Z,100380.63
2022-12-26T15:41:36.036Z,100353.63
2022-12-26T15:44:34.177Z,100356.31
2022-12-26T15:47:20.705Z,100413.13
2022-12-26T15:50:21.368Z,100327.09
2022-12-26T15:53:09.546Z,100387.34
2022-12-26T15:56:06.591Z,100398.78
2022-12-26T15:59:10.780Z,100399.88
2022-12-26T16:01:44.502Z,100344.16
2022-12-26T16:04:26.925Z,100217.16
2022-12-26T16:07:20.291Z,100428.84
2022-12-26T16:09:57.815Z,100274.69
2022-12-26T16:12:31.423Z,100408.91
2022-12-26T16:15:19.272Z,100416.78
2022-12-26T16:17:52.860Z,100373.22
2022-12-26T16:20:50.180Z,100417.81
2022-12-26T16:23:24.204Z,100417.03
2022-12-26T16:25:57.787Z,100403.88
2022-12-26T16:28:35.483Z,100374.31
2022-12-26T16:31:12.535Z,100345.69
2022-12-26T16:33:49.606Z,100398.88
2022-12-26T16:36:26.885Z,100255.22
2022-12-26T16:38:57.265Z,100409.56
2022-12-26T16:41:31.236Z,100410.44
2022-12-26T16:44:31.088Z,100415.69
2022-12-26T16:47:11.556Z,100422.75
2022-12-26T16:49:45.756Z,100421.94
2022-12-26T16:52:43.694Z,100404.56
2022-12-26T16:55:41.525Z,100411.44
2022-12-26T16:58:25.874Z,100373.94
2022-12-26T17:01:14.225Z,100386.19
2022-12-26T17:03:57.433Z,100196.19
2022-12-26T17:06:34.243Z,100317.34
2022-12-26T17:09:11.162Z,100412.41
2022-12-26T17:12:01.061Z,100408.94
2022-12-26T17:14:35.637Z,100413.16
2022-12-26T17:17:09.620Z,100407.13
2022-12-26T17:19:39.905Z,100423.69
2022-12-26T17:22:31.869Z,100428.00
2022-12-26T17:25:26.491Z,100423.47
2022-12-26T17:28:25.587Z,100381.50
2022-12-26T17:30:55.199Z,100425.91
2022-12-26T17:33:28.543Z,100424.13
2022-12-26T17:38:55.590Z,100410.06
2022-12-26T17:41:24.577Z,100375.97
2022-12-26T17:43:58.232Z,100365.53
2022-12-26T17:46:28.685Z,100401.28
2022-12-26T17:48:57.305Z,100153.00
2022-12-26T17:51:26.132Z,100399.63
2022-12-26T17:53:56.961Z,100415.31
2022-12-26T17:56:27.388Z,100281.88
2022-12-26T17:58:56.529Z,100410.84
2022-12-26T18:01:25.970Z,100425.66
2022-12-26T18:03:55.219Z,100415.94
2022-12-26T18:06:24.483Z,100219.00
2022-12-26T18:08:56.185Z,100382.88
2022-12-26T18:11:25.785Z,100283.53
2022-12-26T18:13:54.667Z,100287.84
2022-12-26T18:16:28.275Z,100427.22
2022-12-26T18:19:00.685Z,100379.25
2022-12-26T18:21:33.127Z,100427.97
2022-12-26T18:24:03.864Z,100423.50
2022-12-26T18:26:33.947Z,100336.38
2022-12-26T18:29:03.472Z,100426.03
2022-12-26T18:31:33.116Z,100354.56
2022-12-26T18:34:02.159Z,100404.19
2022-12-26T18:36:35.165Z,100398.88
2022-12-26T18:39:07.089Z,100428.56
2022-12-26T18:41:36.327Z,100416.22
2022-12-26T18:44:05.657Z,100379.56
2022-12-26T18:46:37.468Z,100383.78
2022-12-26T18:49:06.495Z,100399.44
2022-12-26T18:51:37.832Z,100237.44
2022-12-26T18:54:08.122Z,100186.81
2022-12-26T18:56:37.464Z,100379.22
2022-12-26T18:59:06.518Z,100378.34
2022-12-26T19:01:35.445Z,100367.84
2022-12-26T19:04:04.552Z,100243.38
2022-12-26T19:06:35.442Z,100360.22
2022-12-26T19:09:06.119Z,100358.63
2022-12-26T19:11:38.457Z,100246.19
2022-12-26T19:14:11.220Z,100309.72
2022-12-26T19:16:40.204Z,100368.84
2022-12-26T19:19:08.919Z,100199.91
2022-12-26T19:21:37.693Z,100190.25
2022-12-26T19:24:06.882Z,100391.38
2022-12-26T19:26:37.069Z,100355.66
2022-12-26T19:29:06.254Z,100393.88
2022-12-26T19:31:35.025Z,100402.59
2022-12-26T19:34:03.759Z,100370.44
2022-12-26T19:36:32.697Z,100439.34
2022-12-26T19:39:01.672Z,100428.94
2022-12-26T19:41:30.358Z,100465.66
2022-12-26T19:44:02.445Z,100499.91
2022-12-26T19:46:31.860Z,100474.75
2022-12-26T19:49:00.550Z,100217.22
2022-12-26T19:51:29.446Z,100474.44
2022-12-26T19:53:58.287Z,100482.44
2022-12-26T19:56:31.174Z,100459.84
2022-12-26T19:59:03.130Z,100425.03
2022-12-26T20:01:36.826Z,100440.78
2022-12-26T20:04:08.257Z,100375.44
2022-12-26T20:06:39.402Z,100468.72
2022-12-26T20:09:14.499Z,100350.19
2022-12-26T20:11:46.795Z,100466.19
2022-12-26T20:14:19.468Z,100422.53
2022-12-26T20:17:08.788Z,100489.69
2022-12-26T20:19:38.876Z,100338.97
2022-12-26T20:22:08.881Z,100366.91
2022-12-26T20:24:38.031Z,100505.69
2022-12-26T20:27:10.370Z,100496.91
2022-12-26T20:29:41.192Z,100391.50
2022-12-26T20:32:16.456Z,100312.91
2022-12-26T20:34:47.252Z,100519.72
2022-12-26T20:37:16.554Z,100531.13
2022-12-26T20:39:47.113Z,100324.44
2022-12-26T20:42:16.437Z,100533.03
2022-12-26T20:44:47.090Z,100533.91
2022-12-26T20:47:17.940Z,100544.47
2022-12-26T20:49:47.386Z,100532.22
2022-12-26T20:52:16.631Z,100476.38
2022-12-26T20:54:46.944Z,100536.69
2022-12-26T20:57:17.557Z,100537.56
2022-12-26T20:59:49.581Z,100441.63
2022-12-26T21:02:18.832Z,100552.50
2022-12-26T21:04:49.895Z,100508.00
2022-12-26T21:07:20.981Z,100474.06
2022-12-26T21:09:50.096Z,100564.78
2022-12-26T21:12:19.248Z,100567.41
2022-12-26T21:14:50.521Z,100528.94
2022-12-26T21:17:19.292Z,100466.09
2022-12-26T21:19:49.456Z,100567.50
2022-12-26T21:22:18.334Z,100462.72
2022-12-26T21:24:47.475Z,100324.81
2022-12-26T21:27:16.157Z,100587.63
2022-12-26T21:29:44.998Z,100529.91
2022-12-26T21:32:15.230Z,100338.78
2022-12-26T21:34:44.426Z,100597.28
2022-12-26T21:37:43.876Z,100381.63
2022-12-26T21:40:28.014Z,100329.25
2022-12-26T21:42:58.333Z,100613.06
2022-12-26T21:45:27.581Z,100616.59
2022-12-26T21:48:15.272Z,100587.84
2022-12-26T21:50:50.726Z,100639.44
2022-12-26T21:53:25.458Z,100659.69
2022-12-26T21:56:20.022Z,100678.16
2022-12-26T21:59:11.447Z,100672.91
2022-12-26T22:01:46.958Z,100406.31
2022-12-26T22:04:21.953Z,100378.41
2022-12-26T22:06:55.021Z,100693.97
2022-12-26T22:09:27.490Z,100708.00
2022-12-26T22:12:17.812Z,100426.47
2022-12-26T22:14:46.842Z,100723.78
2022-12-26T22:17:17.798Z,100726.44
2022-12-26T22:19:48.320Z,100729.09
2022-12-26T22:22:17.336Z,100744.84
2022-12-26T22:24:46.125Z,100754.47
2022-12-26T22:27:14.945Z,100753.59
2022-12-26T22:29:47.624Z,100757.06
2022-12-26T22:32:18.533Z,100753.59
2022-12-26T22:34:51.528Z,100761.44
2022-12-26T22:37:28.014Z,100765.00
2022-12-26T22:39:57.183Z,100762.38
2022-12-26T22:42:26.205Z,100757.09
2022-12-26T22:44:57.281Z,100756.25
2022-12-26T22:47:28.490Z,100757.97
2022-12-26T22:50:01.065Z,100459.63
2022-12-26T22:52:33.153Z,100777.28
2022-12-26T22:55:02.930Z,100774.66
2022-12-26T22:57:37.363Z,100787.81
2022-12-26T23:00:11.363Z,100760.66
2022-12-26T23:02:40.270Z,100605.63
2022-12-26T23:05:19.863Z,100800.94
2022-12-26T23:07:50.964Z,100718.53
2022-12-26T23:10:24.509Z,100772.88
2022-12-26T23:12:54.074Z,100805.28
2022-12-26T23:15:30.728Z,100801.78
2022-12-26T23:18:35.151Z,100718.53
2022-12-26T23:21:38.922Z,100825.41
2022-12-26T23:24:10.493Z,100832.41
2022-12-26T23:26:39.594Z,100815.72
2022-12-26T23:29:26.533Z,100736.81
2022-12-26T23:31:59.754Z,100851.66
2022-12-26T23:34:29.794Z,100835.81
2022-12-26T23:36:59.790Z,100792.00
2022-12-26T23:39:29.917Z,100871.78
2022-12-26T23:41:58.709Z,100875.25
2022-12-26T23:44:28.045Z,100877.00
2022-12-26T23:46:56.811Z,100854.19
2022-12-26T23:49:27.387Z,100842.72
2022-12-26T23:51:59.210Z,100797.16
2022-12-26T23:54:30.374Z,100634.09
2022-12-26T23:57:05.477Z,100874.25
2022-12-26T23:59:37.778Z,100853.97
